createdAt,value
2023-02-20T00:00:54.503Z,6.22
2023-02-20T00:03:21.335Z,4.18
2023-02-20T00:05:48.066Z,3.58
2023-02-20T00:08:14.814Z,2.20
2023-02-20T00:10:41.726Z,4.78
2023-02-20T00:13:08.457Z,3.95
2023-02-20T00:15:35.171Z,5.65
2023-02-20T00:18:01.934Z,4.35
2023-02-20T00:20:30.313Z,7.68
2023-02-20T00:22:57.131Z,5.15
2023-02-20T00:25:23.811Z,7.78
2023-02-20T00:27:51.049Z,1.20
2023-02-20T00:30:23.496Z,2.22
2023-02-20T00:32:52.435Z,3.15
2023-02-20T00:35:20.073Z,5.75
2023-02-20T00:37:47.405Z,2.53
2023-02-20T00:40:16.064Z,1.30
2023-02-20T00:42:43.375Z,0.80
2023-02-20T00:45:11.687Z,6.57
2023-02-20T00:47:38.587Z,0.73
2023-02-20T00:50:06.857Z,2.55
2023-02-20T00:52:33.589Z,2.85
2023-02-20T00:55:00.250Z,5.03
2023-02-20T00:57:26.951Z,1.35
2023-02-20T00:59:53.637Z,1.33
2023-02-20T01:02:20.660Z,5.47
2023-02-20T01:04:47.435Z,1.30
2023-02-20T01:07:14.145Z,3.53
2023-02-20T01:09:40.840Z,1.27
2023-02-20T01:12:07.697Z,0.82
2023-02-20T01:14:35.531Z,1.27
2023-02-20T01:17:02.557Z,0.60
2023-02-20T01:19:29.897Z,1.55
2023-02-20T01:21:56.653Z,0.60
2023-02-20T01:24:23.488Z,2.53
2023-02-20T01:26:50.389Z,1.77
2023-02-20T01:29:17.901Z,1.25
2023-02-20T01:31:52.138Z,1.65
2023-02-20T01:34:20.601Z,2.90
2023-02-20T01:36:52.404Z,1.80
2023-02-20T01:39:21.369Z,5.30
2023-02-20T01:41:50.783Z,0.63
2023-02-20T01:44:23.991Z,2.45
2023-02-20T01:46:56.603Z,1.02
2023-02-20T01:49:32.768Z,0.63
2023-02-20T01:52:12.260Z,0.68
2023-02-20T01:54:42.359Z,0.73
2023-02-20T01:57:12.251Z,1.65
2023-02-20T01:59:40.266Z,0.28
2023-02-20T02:02:07.795Z,1.70
2023-02-20T02:04:37.052Z,1.85
2023-02-20T02:07:04.949Z,2.83
2023-02-20T02:09:56.091Z,1.35
2023-02-20T02:12:23.304Z,5.45
2023-02-20T02:14:50.008Z,3.20
2023-02-20T02:17:16.632Z,0.40
2023-02-20T02:20:19.762Z,1.48
2023-02-20T02:23:25.722Z,2.40
2023-02-20T02:26:16.720Z,1.08
2023-02-20T02:28:57.671Z,1.00
2023-02-20T02:31:41.512Z,1.77
2023-02-20T02:34:19.921Z,1.38
2023-02-20T02:37:16.701Z,1.73
2023-02-20T02:39:54.902Z,2.97
2023-02-20T02:42:48.857Z,3.25
2023-02-20T02:45:27.594Z,0.52
2023-02-20T02:48:01.426Z,2.40
2023-02-20T02:50:37.051Z,0.57
2023-02-20T02:53:09.501Z,1.63
2023-02-20T02:55:36.565Z,0.30
2023-02-20T02:58:05.173Z,2.15
2023-02-20T03:00:43.300Z,0.20
2023-02-20T03:03:27.077Z,0.55
2023-02-20T03:06:09.846Z,2.15
2023-02-20T03:08:43.604Z,0.32
2023-02-20T03:11:19.931Z,2.03
2023-02-20T03:14:12.695Z,0.88
2023-02-20T03:16:56.281Z,1.20
2023-02-20T03:19:30.051Z,0.90
2023-02-20T03:21:58.719Z,1.17
2023-02-20T03:24:28.774Z,1.73
2023-02-20T03:26:58.029Z,1.98
2023-02-20T03:29:35.345Z,0.30
2023-02-20T03:32:28.746Z,0.95
2023-02-20T03:35:16.182Z,0.30
2023-02-20T03:38:04.441Z,0.47
2023-02-20T03:40:51.408Z,1.40
2023-02-20T03:43:27.960Z,1.17
2023-02-20T03:46:02.522Z,1.75
2023-02-20T03:48:38.300Z,2.33
2023-02-20T03:51:05.357Z,1.38
2023-02-20T03:53:33.318Z,0.30
2023-02-20T03:56:05.461Z,3.30
2023-02-20T03:58:37.224Z,0.52
2023-02-20T04:01:06.228Z,1.10
2023-02-20T04:03:37.336Z,3.25
2023-02-20T04:06:06.314Z,1.48
2023-02-20T04:08:38.049Z,1.90
2023-02-20T04:11:21.815Z,5.22
2023-02-20T04:13:50.625Z,3.95
2023-02-20T04:16:17.892Z,2.92
2023-02-20T04:18:45.266Z,3.95
2023-02-20T04:21:32.993Z,4.85
2023-02-20T04:24:08.128Z,4.30
2023-02-20T04:26:36.090Z,4.78
2023-02-20T04:29:05.403Z,3.65
2023-02-20T04:31:32.251Z,5.78
2023-02-20T04:33:59.207Z,9.07
2023-02-20T04:36:26.600Z,11.05
2023-02-20T04:38:53.408Z,7.97
2023-02-20T04:41:20.185Z,9.52
2023-02-20T04:43:48.094Z,10.73
2023-02-20T04:46:15.356Z,6.47
2023-02-20T04:48:42.508Z,6.03
2023-02-20T04:51:09.467Z,7.13
2023-02-20T04:53:36.164Z,12.82
2023-02-20T04:56:02.842Z,11.20
2023-02-20T04:58:29.594Z,8.35
2023-02-20T05:00:56.288Z,9.85
2023-02-20T05:03:23.043Z,11.48
2023-02-20T05:05:49.707Z,14.27
2023-02-20T05:08:16.432Z,14.45
2023-02-20T05:10:43.189Z,9.98
2023-02-20T05:13:09.967Z,10.18
2023-02-20T05:15:36.672Z,10.98
2023-02-20T05:18:03.584Z,7.30
2023-02-20T05:20:50.531Z,15.73
2023-02-20T05:23:17.255Z,8.07
2023-02-20T05:25:44.062Z,12.68
2023-02-20T05:28:10.788Z,10.75
2023-02-20T05:30:37.608Z,13.43
2023-02-20T05:33:04.331Z,14.02
2023-02-20T05:35:31.053Z,14.02
2023-02-20T05:37:57.744Z,7.70
2023-02-20T05:40:24.396Z,13.98
2023-02-20T05:42:51.092Z,17.38
2023-02-20T05:45:17.806Z,13.38
2023-02-20T05:47:44.487Z,9.88
2023-02-20T05:50:11.439Z,17.95
2023-02-20T05:52:38.183Z,22.40
2023-02-20T05:55:05.114Z,16.50
2023-02-20T05:57:31.795Z,27.75
2023-02-20T05:59:58.497Z,16.90
2023-02-20T06:02:25.202Z,14.43
2023-02-20T06:04:51.954Z,17.77
2023-02-20T06:07:18.634Z,21.95
2023-02-20T06:09:45.381Z,23.02
2023-02-20T06:12:12.641Z,25.35
2023-02-20T06:14:39.550Z,29.80
2023-02-20T06:17:06.255Z,31.52
2023-02-20T06:19:33.064Z,23.90
2023-02-20T06:21:59.920Z,34.97
2023-02-20T06:24:26.625Z,36.40
2023-02-20T06:26:53.732Z,25.67
2023-02-20T06:29:20.740Z,29.23
2023-02-20T06:31:48.053Z,34.58
2023-02-20T06:34:15.391Z,37.65
2023-02-20T06:36:42.618Z,42.35
2023-02-20T06:39:11.172Z,42.95
2023-02-20T06:41:37.894Z,44.25
2023-02-20T06:44:05.642Z,48.45
2023-02-20T06:46:32.539Z,39.63
2023-02-20T06:48:59.923Z,54.88
2023-02-20T06:51:32.056Z,47.25
2023-02-20T06:53:59.856Z,45.10
2023-02-20T06:56:29.130Z,54.47
2023-02-20T06:58:56.265Z,37.20
2023-02-20T07:01:29.366Z,46.20
2023-02-20T07:03:57.681Z,43.22
2023-02-20T07:06:25.298Z,57.80
2023-02-20T07:08:52.614Z,41.50
2023-02-20T07:11:21.595Z,63.00
2023-02-20T07:13:48.352Z,49.47
2023-02-20T07:16:15.963Z,56.45
2023-02-20T07:18:42.898Z,62.50
2023-02-20T07:21:09.917Z,46.33
2023-02-20T07:23:36.597Z,61.42
2023-02-20T07:26:03.346Z,49.60
2023-02-20T07:28:30.025Z,52.00
2023-02-20T07:30:56.736Z,66.25
2023-02-20T07:33:23.458Z,58.47
2023-02-20T07:35:50.386Z,54.22
2023-02-20T07:38:17.155Z,53.13
2023-02-20T07:40:43.919Z,52.13
2023-02-20T07:43:10.746Z,43.30
2023-02-20T07:45:39.135Z,50.30
2023-02-20T07:48:06.569Z,48.00
2023-02-20T07:50:33.812Z,59.42
2023-02-20T07:53:00.605Z,56.90
2023-02-20T07:55:27.346Z,57.63
2023-02-20T07:57:58.037Z,58.72
2023-02-20T08:00:26.788Z,56.67
2023-02-20T08:02:53.995Z,50.67
2023-02-20T08:05:20.888Z,64.10
2023-02-20T08:07:49.801Z,54.47
2023-02-20T08:10:18.608Z,63.47
2023-02-20T08:12:45.952Z,65.65
2023-02-20T08:15:12.797Z,46.70
2023-02-20T08:17:46.407Z,47.72
2023-02-20T08:20:15.504Z,66.05
2023-02-20T08:22:43.515Z,44.13
2023-02-20T08:25:10.483Z,51.47
2023-02-20T08:27:38.579Z,60.80
2023-02-20T08:30:11.384Z,48.10
2023-02-20T08:32:38.205Z,49.88
2023-02-20T08:35:05.254Z,59.22
2023-02-20T08:37:31.962Z,38.10
2023-02-20T08:39:58.708Z,36.22
2023-02-20T08:42:25.383Z,34.42
2023-02-20T08:44:52.223Z,48.45
2023-02-20T08:47:23.581Z,57.75
2023-02-20T08:49:50.294Z,39.33
2023-02-20T08:52:17.349Z,48.60
2023-02-20T08:54:49.796Z,39.65
2023-02-20T08:57:17.607Z,32.45
2023-02-20T08:59:44.508Z,40.33
2023-02-20T09:02:19.145Z,37.70
2023-02-20T09:04:46.639Z,37.90
2023-02-20T09:07:14.157Z,40.97
2023-02-20T09:09:41.083Z,40.75
2023-02-20T09:12:09.236Z,41.78
2023-02-20T09:14:36.307Z,37.78
2023-02-20T09:17:03.083Z,42.70
2023-02-20T09:19:29.805Z,41.92
2023-02-20T09:21:56.919Z,29.98
2023-02-20T09:24:23.693Z,42.15
2023-02-20T09:26:50.592Z,40.58
2023-02-20T09:29:17.300Z,38.28
2023-02-20T09:31:44.066Z,40.65
2023-02-20T09:34:10.764Z,35.00
2023-02-20T09:36:37.452Z,39.58
2023-02-20T09:39:04.261Z,24.88
2023-02-20T09:41:49.006Z,31.42
2023-02-20T09:44:15.645Z,29.60
2023-02-20T09:46:46.189Z,28.38
2023-02-20T09:49:17.233Z,23.30
2023-02-20T09:51:51.461Z,23.23
2023-02-20T09:54:27.058Z,18.80
2023-02-20T09:56:58.290Z,25.98
2023-02-20T09:59:38.334Z,25.48
2023-02-20T10:02:13.012Z,25.40
2023-02-20T10:04:55.563Z,23.60
2023-02-20T10:07:49.037Z,31.60
2023-02-20T10:10:51.720Z,30.38
2023-02-20T10:13:33.599Z,18.75
2023-02-20T10:16:29.025Z,17.08
2023-02-20T10:19:11.245Z,30.50
2023-02-20T10:21:49.485Z,24.63
2023-02-20T10:24:44.458Z,25.48
2023-02-20T10:27:27.393Z,26.25
2023-02-20T10:29:56.842Z,28.75
2023-02-20T10:32:30.549Z,20.77
2023-02-20T10:35:13.755Z,30.42
2023-02-20T10:37:48.080Z,30.25
2023-02-20T10:40:24.640Z,25.88
2023-02-20T10:43:03.988Z,28.95
2023-02-20T10:45:35.603Z,25.42
2023-02-20T10:48:04.969Z,26.25
2023-02-20T10:50:54.484Z,27.85
2023-02-20T10:53:28.701Z,24.50
2023-02-20T10:56:22.849Z,23.17
2023-02-20T10:59:02.994Z,23.10
2023-02-20T11:01:30.026Z,30.52
2023-02-20T11:04:00.345Z,32.50
2023-02-20T11:06:38.233Z,25.65
2023-02-20T11:09:05.031Z,37.60
2023-02-20T11:11:41.276Z,27.30
2023-02-20T11:14:49.002Z,22.08
2023-02-20T11:17:22.616Z,18.35
2023-02-20T11:20:01.302Z,22.75
2023-02-20T11:22:49.363Z,24.02
2023-02-20T11:25:19.104Z,22.48
2023-02-20T11:27:49.941Z,23.98
2023-02-20T11:30:26.997Z,21.35
2023-02-20T11:33:01.512Z,22.20
2023-02-20T11:35:33.357Z,20.95
2023-02-20T11:38:17.248Z,19.95
2023-02-20T11:40:47.314Z,32.35
2023-02-20T11:43:13.970Z,20.08
2023-02-20T11:45:41.356Z,33.00
2023-02-20T11:48:13.746Z,22.60
2023-02-20T11:50:48.924Z,34.78
2023-02-20T11:53:29.816Z,24.77
2023-02-20T11:56:10.610Z,25.67
2023-02-20T11:58:38.275Z,25.63
2023-02-20T12:01:05.478Z,20.83
2023-02-20T12:03:35.067Z,40.45
2023-02-20T12:06:32.435Z,29.00
2023-02-20T12:09:02.172Z,32.47
2023-02-20T12:11:29.519Z,32.25
2023-02-20T12:13:59.444Z,33.88
2023-02-20T12:16:44.065Z,33.08
2023-02-20T12:19:31.344Z,37.47
2023-02-20T12:22:16.058Z,40.25
2023-02-20T12:24:55.190Z,37.60
2023-02-20T12:27:34.016Z,27.40
2023-02-20T12:30:22.349Z,32.90
2023-02-20T12:33:10.258Z,40.78
2023-02-20T12:35:54.678Z,34.95
2023-02-20T12:38:43.760Z,34.78
2023-02-20T12:41:43.553Z,48.88
2023-02-20T12:44:48.542Z,45.83
2023-02-20T12:47:37.442Z,35.00
2023-02-20T12:50:13.203Z,39.50
2023-02-20T12:53:03.604Z,34.53
2023-02-20T12:55:51.218Z,55.50
2023-02-20T12:58:17.907Z,48.88
2023-02-20T13:00:52.957Z,50.78
2023-02-20T13:03:42.823Z,34.33
2023-02-20T13:06:13.612Z,22.25
2023-02-20T13:09:05.541Z,32.08
2023-02-20T13:11:37.320Z,38.78
2023-02-20T13:14:15.932Z,33.80
2023-02-20T13:17:23.350Z,30.05
2023-02-20T13:20:06.492Z,23.58
2023-02-20T13:22:33.450Z,39.63
2023-02-20T13:25:31.141Z,19.55
2023-02-20T13:28:02.503Z,34.22
2023-02-20T13:30:29.338Z,37.63
2023-02-20T13:33:24.666Z,28.75
2023-02-20T13:35:56.635Z,45.97
2023-02-20T13:38:27.890Z,35.22
2023-02-20T13:40:58.889Z,38.17
2023-02-20T13:43:28.336Z,38.63
2023-02-20T13:46:01.131Z,39.15
2023-02-20T13:48:31.023Z,26.08
2023-02-20T13:51:19.895Z,29.95
2023-02-20T13:53:54.694Z,39.72
2023-02-20T13:56:27.728Z,41.47
2023-02-20T13:58:58.017Z,34.53
2023-02-20T14:01:25.159Z,41.38
2023-02-20T14:04:03.052Z,37.00
2023-02-20T14:06:30.257Z,29.58
2023-02-20T14:09:16.611Z,29.85
2023-02-20T14:11:43.412Z,26.98
2023-02-20T14:14:26.116Z,33.28
2023-02-20T14:17:02.615Z,21.33
2023-02-20T14:19:30.217Z,28.42
2023-02-20T14:21:57.128Z,23.27
2023-02-20T14:24:29.359Z,28.08
2023-02-20T14:26:56.925Z,14.40
2023-02-20T14:29:33.618Z,23.80
2023-02-20T14:32:03.060Z,22.88
2023-02-20T14:34:56.780Z,22.83
2023-02-20T14:37:36.693Z,22.75
2023-02-20T14:40:16.554Z,25.58
2023-02-20T14:42:47.029Z,25.40
2023-02-20T14:45:21.689Z,19.23
2023-02-20T14:47:56.434Z,19.48
2023-02-20T14:50:27.773Z,13.85
2023-02-20T14:53:18.024Z,25.70
2023-02-20T14:55:45.579Z,21.55
2023-02-20T14:58:15.420Z,20.98
2023-02-20T15:00:44.007Z,19.98
2023-02-20T15:03:30.711Z,13.55
2023-02-20T15:06:05.962Z,22.25
2023-02-20T15:08:36.039Z,22.00
2023-02-20T15:11:09.593Z,22.75
2023-02-20T15:13:41.314Z,25.05
2023-02-20T15:16:20.758Z,17.30
2023-02-20T15:18:50.111Z,24.38
2023-02-20T15:21:38.390Z,20.90
2023-02-20T15:24:27.172Z,22.33
2023-02-20T15:26:53.886Z,22.80
2023-02-20T15:29:28.569Z,20.17
2023-02-20T15:31:56.658Z,21.98
2023-02-20T15:34:35.875Z,23.65
2023-02-20T15:37:38.475Z,17.92
2023-02-20T15:40:29.265Z,15.55
2023-02-20T15:42:57.380Z,29.67
2023-02-20T15:45:29.875Z,24.45
2023-02-20T15:47:58.091Z,25.92
2023-02-20T15:50:27.400Z,28.50
2023-02-20T15:52:55.901Z,27.25
2023-02-20T15:55:23.577Z,35.25
2023-02-20T15:57:54.930Z,29.10
2023-02-20T16:00:28.023Z,17.70
2023-02-20T16:02:55.204Z,18.45
2023-02-20T16:05:22.192Z,24.58
2023-02-20T16:07:49.205Z,24.85
2023-02-20T16:10:18.393Z,19.42
2023-02-20T16:12:45.856Z,27.65
2023-02-20T16:15:17.989Z,37.60
2023-02-20T16:17:44.804Z,30.67
2023-02-20T16:20:20.931Z,26.85
2023-02-20T16:22:47.990Z,30.30
2023-02-20T16:25:17.956Z,37.38
2023-02-20T16:27:45.862Z,34.47
2023-02-20T16:30:32.227Z,30.10
2023-02-20T16:32:59.921Z,38.47
2023-02-20T16:35:27.930Z,42.10
2023-02-20T16:37:54.767Z,33.80
2023-02-20T16:40:21.510Z,33.78
2023-02-20T16:42:48.217Z,42.95
2023-02-20T16:45:18.738Z,44.72
2023-02-20T16:47:50.023Z,44.37
2023-02-20T16:50:21.014Z,39.45
2023-02-20T16:52:50.736Z,35.00
2023-02-20T16:55:23.492Z,34.72
2023-02-20T16:57:50.865Z,27.90
2023-02-20T17:00:19.757Z,29.30
2023-02-20T17:02:46.845Z,37.00
2023-02-20T17:05:14.822Z,37.15
2023-02-20T17:07:41.608Z,33.38
2023-02-20T17:10:09.040Z,37.25
2023-02-20T17:12:36.855Z,37.97
2023-02-20T17:15:06.529Z,29.73
2023-02-20T17:17:33.275Z,42.78
2023-02-20T17:20:01.019Z,36.35
2023-02-20T17:22:28.508Z,26.48
2023-02-20T17:24:56.960Z,46.97
2023-02-20T17:27:24.281Z,34.13
2023-02-20T17:29:51.325Z,33.15
2023-02-20T17:32:18.573Z,38.35
2023-02-20T17:34:45.549Z,36.33
2023-02-20T17:37:14.156Z,34.90
2023-02-20T17:39:41.074Z,28.27
2023-02-20T17:42:08.118Z,32.30
2023-02-20T17:44:35.004Z,42.10
2023-02-20T17:47:02.070Z,44.03
2023-02-20T17:49:30.203Z,36.45
2023-02-20T17:52:01.271Z,29.20
2023-02-20T17:54:29.450Z,34.35
2023-02-20T17:56:56.189Z,23.65
2023-02-20T17:59:24.033Z,36.88
2023-02-20T18:01:51.493Z,32.15
2023-02-20T18:04:21.149Z,28.83
2023-02-20T18:06:48.428Z,33.00
2023-02-20T18:09:17.808Z,22.73
2023-02-20T18:11:46.211Z,29.15
2023-02-20T18:14:13.745Z,16.10
2023-02-20T18:16:40.897Z,26.73
2023-02-20T18:19:13.758Z,21.15
2023-02-20T18:21:42.742Z,28.65
2023-02-20T18:24:10.504Z,25.88
2023-02-20T18:26:37.716Z,31.92
2023-02-20T18:29:04.951Z,25.02
2023-02-20T18:31:32.093Z,31.17
2023-02-20T18:33:58.979Z,32.75
2023-02-20T18:36:25.997Z,39.33
2023-02-20T18:38:52.937Z,29.75
2023-02-20T18:41:20.949Z,33.20
2023-02-20T18:43:49.430Z,25.17
2023-02-20T18:46:26.234Z,27.23
2023-02-20T18:48:53.020Z,29.10
2023-02-20T18:51:27.040Z,22.50
2023-02-20T18:53:53.882Z,32.28
2023-02-20T18:56:21.206Z,34.30
2023-02-20T18:58:48.152Z,35.10
2023-02-20T19:01:20.859Z,37.53
2023-02-20T19:03:50.221Z,31.58
2023-02-20T19:06:34.613Z,31.00
2023-02-20T19:09:02.059Z,31.55
2023-02-20T19:11:29.745Z,37.78
2023-02-20T19:13:56.779Z,29.52
2023-02-20T19:16:23.567Z,33.08
2023-02-20T19:18:51.187Z,27.60
2023-02-20T19:21:19.599Z,25.48
2023-02-20T19:23:47.600Z,28.67
2023-02-20T19:26:15.529Z,31.40
2023-02-20T19:28:42.663Z,23.45
2023-02-20T19:31:11.706Z,28.92
2023-02-20T19:33:38.776Z,21.50
2023-02-20T19:36:08.883Z,19.40
2023-02-20T19:38:38.292Z,28.67
2023-02-20T19:41:05.450Z,23.10
2023-02-20T19:43:32.228Z,24.52
2023-02-20T19:45:59.044Z,22.95
2023-02-20T19:48:28.025Z,22.83
2023-02-20T19:50:56.103Z,31.08
2023-02-20T19:53:23.460Z,26.48
2023-02-20T19:55:54.309Z,19.73
2023-02-20T19:58:21.687Z,19.25
2023-02-20T20:00:48.364Z,18.65
2023-02-20T20:03:15.104Z,21.98
2023-02-20T20:05:41.890Z,14.82
2023-02-20T20:08:08.657Z,23.13
2023-02-20T20:10:35.538Z,27.23
2023-02-20T20:13:02.613Z,27.65
2023-02-20T20:15:29.576Z,32.70
2023-02-20T20:18:02.164Z,27.75
2023-02-20T20:20:30.614Z,27.30
2023-02-20T20:23:01.443Z,28.63
2023-02-20T20:25:28.780Z,31.90
2023-02-20T20:27:57.917Z,26.52
2023-02-20T20:30:27.368Z,24.73
2023-02-20T20:32:54.720Z,26.08
2023-02-20T20:35:23.100Z,26.30
2023-02-20T20:37:50.009Z,24.45
2023-02-20T20:40:17.572Z,33.67
2023-02-20T20:42:44.480Z,29.00
2023-02-20T20:45:14.455Z,28.48
2023-02-20T20:47:42.897Z,26.33
2023-02-20T20:50:10.729Z,30.85
2023-02-20T20:52:37.506Z,25.40
2023-02-20T20:55:04.882Z,26.95
2023-02-20T20:57:36.558Z,28.70
2023-02-20T21:00:10.984Z,19.65
2023-02-20T21:02:37.864Z,26.00
2023-02-20T21:05:10.323Z,23.27
2023-02-20T21:07:39.031Z,29.00
2023-02-20T21:10:06.490Z,16.88
2023-02-20T21:12:33.434Z,22.38
2023-02-20T21:15:00.335Z,32.17
2023-02-20T21:17:27.359Z,26.40
2023-02-20T21:19:54.135Z,22.17
2023-02-20T21:22:21.122Z,30.15
2023-02-20T21:24:48.368Z,21.48
2023-02-20T21:27:15.334Z,25.90
2023-02-20T21:29:42.342Z,27.85
2023-02-20T21:32:09.441Z,28.55
2023-02-20T21:34:36.346Z,25.13
2023-02-20T21:37:03.175Z,19.45
2023-02-20T21:39:29.992Z,27.83
2023-02-20T21:42:15.485Z,24.38
2023-02-20T21:44:47.759Z,24.60
2023-02-20T21:47:17.014Z,22.70
2023-02-20T21:49:46.524Z,26.42
2023-02-20T21:52:18.803Z,27.92
2023-02-20T21:54:51.665Z,18.73
2023-02-20T21:57:19.141Z,19.73
2023-02-20T21:59:46.006Z,28.25
2023-02-20T22:02:18.666Z,22.70
2023-02-20T22:04:45.698Z,17.50
2023-02-20T22:07:31.782Z,19.42
2023-02-20T22:10:17.267Z,24.08
2023-02-20T22:13:02.562Z,18.27
2023-02-20T22:15:48.044Z,17.98
2023-02-20T22:18:33.420Z,15.23
2023-02-20T22:21:18.787Z,19.23
2023-02-20T22:24:04.139Z,10.55
2023-02-20T22:26:49.329Z,22.50
2023-02-20T22:29:34.691Z,20.80
2023-02-20T22:32:20.495Z,26.55
2023-02-20T22:35:11.909Z,28.10
2023-02-20T22:37:57.845Z,21.45
2023-02-20T22:40:43.087Z,20.73
2023-02-20T22:43:28.568Z,22.20
2023-02-20T22:46:13.761Z,22.25
2023-02-20T22:48:59.314Z,26.73
2023-02-20T22:51:44.754Z,19.65
2023-02-20T22:54:30.359Z,21.75
2023-02-20T22:57:16.182Z,22.52
2023-02-20T23:00:02.310Z,28.77
2023-02-20T23:02:48.646Z,21.95
2023-02-20T23:05:34.009Z,18.00
2023-02-20T23:08:19.588Z,23.13
2023-02-20T23:11:04.999Z,33.92
2023-02-20T23:13:50.765Z,28.67
2023-02-20T23:16:42.557Z,27.95
2023-02-20T23:22:14.785Z,30.20
2023-02-20T23:25:00.006Z,28.45
2023-02-20T23:27:45.314Z,10.68
2023-02-20T23:30:31.833Z,20.50
2023-02-20T23:33:17.215Z,26.85
2023-02-20T23:36:02.536Z,24.35
2023-02-20T23:38:48.362Z,17.38
2023-02-20T23:41:33.704Z,27.48
2023-02-20T23:44:19.174Z,24.23
2023-02-20T23:47:05.926Z,26.65
2023-02-20T23:49:51.324Z,24.70
2023-02-20T23:52:36.735Z,26.35
2023-02-20T23:55:22.060Z,26.27
2023-02-20T23:58:07.545Z,23.42
